Time;durP1;ratioP1;P1;durP2;ratioP2;P2;SDS_P1;SDS_P2;PMS_P1;PMS_P2;Temp;Humidity;BMP_temperature;BMP_pressure;BME280_temperature;BME280_humidity;BME280_pressure;Samples;Min_cycle;Max_cycle;Signal;HPM_P1;HPM_P2
2022/11/10 00:00:05;;;;;;;11.35;2.20;;;10.60;99.90;;;;;;5122958;27;20053;-76
2022/11/10 00:02:31;;;;;;;11.57;2.72;;;9.40;99.90;;;;;;5105068;27;20061;-76
2022/11/10 00:04:57;;;;;;;9.50;2.03;;;9.40;99.90;;;;;;5108504;27;20039;-75
2022/11/10 00:07:27;;;;;;;10.43;2.20;;;9.40;99.90;;;;;;5125689;27;20540;-76
2022/11/10 00:09:53;;;;;;;11.80;2.38;;;9.40;99.90;;;;;;5143003;27;20047;-75
2022/11/10 00:12:21;;;;;;;17.73;3.30;;;9.60;99.90;;;;;;5125377;27;20038;-75
2022/11/10 00:17:33;;;;;;;;;;;9.40;99.90;;;;;;5142252;27;20039;-76
2022/11/10 00:19:59;;;;;;;10.18;1.90;;;9.80;99.90;;;;;;5141245;27;19919;-76
2022/11/10 00:22:25;;;;;;;14.60;2.85;;;9.40;99.90;;;;;;5143526;27;20087;-76
2022/11/10 00:24:50;;;;;;;14.05;3.45;;;9.90;99.90;;;;;;5143612;27;20046;-76
2022/11/10 00:27:16;;;;;;;15.85;2.38;;;9.30;99.90;;;;;;5143215;27;20031;-75
2022/11/10 00:29:50;;;;;;;12.02;2.42;;;9.50;99.90;;;;;;5143709;27;20122;-76
2022/11/10 00:32:16;;;;;;;10.70;2.38;;;9.40;99.90;;;;;;5123102;27;20113;-75
2022/11/10 00:34:41;;;;;;;8.90;2.58;;;9.30;99.90;;;;;;5142521;27;20405;-76
2022/11/10 00:37:07;;;;;;;15.02;2.90;;;9.30;99.90;;;;;;5106827;27;20086;-75
2022/11/10 00:39:32;;;;;;;20.40;2.42;;;9.90;99.90;;;;;;5129393;27;20062;-76
2022/11/10 00:41:58;;;;;;;16.58;2.50;;;9.50;99.90;;;;;;5123403;27;20545;-76
2022/11/10 00:44:24;;;;;;;10.02;2.30;;;9.30;99.90;;;;;;5143360;27;20030;-76
2022/11/10 00:46:49;;;;;;;17.60;2.67;;;9.30;99.90;;;;;;5131027;27;20126;-76
2022/11/10 00:49:15;;;;;;;15.07;2.45;;;9.30;99.90;;;;;;5121715;27;20528;-76
2022/11/10 00:51:41;;;;;;;12.50;2.83;;;9.80;99.90;;;;;;5142859;27;20053;-76
2022/11/10 00:54:06;;;;;;;19.35;3.05;;;9.30;99.90;;;;;;5122495;27;20042;-76
2022/11/10 00:56:32;;;;;;;15.10;2.72;;;9.30;99.90;;;;;;5124912;27;20068;-76
2022/11/10 00:58:58;;;;;;;9.82;2.40;;;9.30;99.90;;;;;;5124002;27;20046;-76
2022/11/10 01:01:24;;;;;;;15.82;2.60;;;9.30;99.90;;;;;;5142289;27;20466;-76
2022/11/10 01:03:51;;;;;;;14.45;3.15;;;9.30;99.90;;;;;;5124810;27;20046;-76
2022/11/10 01:06:18;;;;;;;13.05;3.08;;;9.30;99.90;;;;;;5139174;27;20071;-76
2022/11/10 01:08:44;;;;;;;17.40;3.05;;;9.30;99.90;;;;;;5110653;27;20100;-76
2022/11/10 01:11:20;;;;;;;14.65;2.97;;;9.40;99.90;;;;;;5121888;27;20490;-76
2022/11/10 01:13:46;;;;;;;9.52;2.40;;;9.30;99.90;;;;;;5128368;27;20107;-76
2022/11/10 01:16:24;;;;;;;9.38;2.78;;;9.40;99.90;;;;;;5139560;27;20519;-76
2022/11/10 01:18:56;;;;;;;14.82;3.00;;;9.30;99.90;;;;;;5096483;27;20172;-76
2022/11/10 01:21:22;;;;;;;12.98;2.80;;;9.30;99.90;;;;;;5120826;27;20114;-76
2022/11/10 01:23:48;;;;;;;11.38;3.42;;;9.30;99.90;;;;;;5104591;27;20047;-76
2022/11/10 01:26:15;;;;;;;15.23;3.15;;;9.20;99.90;;;;;;5146789;27;20674;-76
2022/11/10 01:28:41;;;;;;;14.82;3.17;;;10.30;99.90;;;;;;5120295;27;20047;-76
2022/11/10 01:31:12;;;;;;;18.05;3.40;;;9.30;99.90;;;;;;5127683;27;20038;-76
2022/11/10 01:33:38;;;;;;;11.80;3.35;;;9.30;99.90;;;;;;5120224;27;20055;-75
2022/11/10 01:36:05;;;;;;;17.65;4.00;;;9.30;99.90;;;;;;5140700;27;20164;-76
2022/11/10 01:38:34;;;;;;;12.25;3.30;;;9.20;99.90;;;;;;5125476;27;20102;-76
2022/11/10 01:41:00;;;;;;;14.13;3.78;;;8.70;99.90;;;;;;5120921;27;20040;-75
2022/11/10 01:43:28;;;;;;;15.32;3.92;;;9.50;99.90;;;;;;5109073;28;20158;-76
2022/11/10 01:46:04;;;;;;;15.77;3.65;;;9.20;99.90;;;;;;5103081;28;20080;-76
2022/11/10 01:48:45;;;;;;;12.60;3.17;;;9.20;99.90;;;;;;5132165;27;20280;-75
2022/11/10 01:51:32;;;;;;;14.73;3.30;;;9.80;99.90;;;;;;5106074;27;20043;-76
2022/11/10 01:54:10;;;;;;;10.82;4.20;;;9.20;99.90;;;;;;5128631;27;20050;-76
2022/11/10 01:56:41;;;;;;;16.50;3.85;;;9.20;99.90;;;;;;5130562;27;20026;-76
2022/11/10 01:59:12;;;;;;;14.20;3.45;;;9.10;99.90;;;;;;5111264;27;20051;-76
2022/11/10 02:01:41;;;;;;;15.15;3.50;;;9.10;99.90;;;;;;5131128;27;20046;-76
2022/11/10 02:04:11;;;;;;;14.93;3.78;;;9.10;99.90;;;;;;5113148;27;20047;-76
2022/11/10 02:06:40;;;;;;;14.40;3.78;;;9.10;99.90;;;;;;5102462;27;20054;-76
2022/11/10 02:09:06;;;;;;;16.63;3.17;;;9.10;99.90;;;;;;5116888;27;20043;-76
2022/11/10 02:11:33;;;;;;;17.75;4.03;;;9.10;99.90;;;;;;5125865;27;20042;-76
2022/11/10 02:13:59;;;;;;;20.10;4.60;;;9.10;99.90;;;;;;5153511;27;20576;-76
2022/11/10 02:16:25;;;;;;;15.90;3.50;;;9.00;99.90;;;;;;5126661;27;20076;-75
2022/11/10 02:18:51;;;;;;;13.55;4.15;;;9.00;99.90;;;;;;5109397;27;20073;-76
2022/11/10 02:21:19;;;;;;;14.80;3.60;;;9.00;99.90;;;;;;5132845;27;20039;-76
2022/11/10 02:23:48;;;;;;;13.88;4.45;;;9.00;99.90;;;;;;5126913;27;20039;-76
2022/11/10 02:26:16;;;;;;;20.83;3.80;;;9.00;99.90;;;;;;5115622;27;20065;-76
2022/11/10 02:28:42;;;;;;;11.52;3.78;;;9.00;99.90;;;;;;5126876;27;20042;-76
2022/11/10 02:31:08;;;;;;;13.45;4.18;;;9.00;99.90;;;;;;5117548;27;20062;-75
2022/11/10 02:33:35;;;;;;;19.77;4.10;;;9.00;99.90;;;;;;5125966;27;20050;-75
2022/11/10 02:36:00;;;;;;;16.08;3.85;;;9.00;99.90;;;;;;5145753;27;20437;-76
2022/11/10 02:38:26;;;;;;;15.48;3.10;;;9.00;99.90;;;;;;5115103;27;20035;-75
2022/11/10 02:40:52;;;;;;;10.65;3.63;;;9.00;99.90;;;;;;5109111;27;20104;-76
2022/11/10 02:43:18;;;;;;;20.42;4.30;;;8.90;99.90;;;;;;5133804;27;20049;-75
2022/11/10 02:45:44;;;;;;;15.18;3.85;;;9.00;99.90;;;;;;5145133;27;20043;-76
2022/11/10 02:48:12;;;;;;;20.35;4.38;;;9.00;99.90;;;;;;5116290;27;20047;-76
2022/11/10 02:50:37;;;;;;;19.73;4.35;;;9.00;99.90;;;;;;5129929;27;20406;-76
2022/11/10 02:53:04;;;;;;;15.40;4.38;;;9.00;99.90;;;;;;5153694;27;20042;-76
2022/11/10 02:55:29;;;;;;;17.83;4.28;;;9.00;99.90;;;;;;5108913;27;20031;-76
2022/11/10 02:57:55;;;;;;;21.42;4.03;;;9.00;99.90;;;;;;5124954;27;20043;-77
2022/11/10 03:00:20;;;;;;;23.15;4.05;;;9.00;99.90;;;;;;5148544;27;20042;-76
2022/11/10 03:02:46;;;;;;;16.17;3.58;;;9.10;99.90;;;;;;5122927;27;20091;-76
2022/11/10 03:05:12;;;;;;;20.65;4.50;;;9.10;99.90;;;;;;5145235;27;20035;-77
2022/11/10 03:07:38;;;;;;;17.05;4.07;;;9.10;99.90;;;;;;5144521;27;20039;-75
2022/11/10 03:10:05;;;;;;;15.65;3.83;;;9.50;99.90;;;;;;5142724;27;20046;-76
2022/11/10 03:12:30;;;;;;;14.32;3.70;;;9.10;99.90;;;;;;5126434;27;20117;-76
2022/11/10 03:14:56;;;;;;;13.68;3.45;;;9.70;99.90;;;;;;5144245;27;20229;-76
2022/11/10 03:17:22;;;;;;;18.83;3.83;;;9.10;99.90;;;;;;5125885;27;20081;-76
2022/11/10 03:19:48;;;;;;;17.80;3.53;;;9.70;99.90;;;;;;5110894;27;20043;-75
2022/11/10 03:22:14;;;;;;;20.48;4.05;;;9.10;99.90;;;;;;5123972;27;20039;-76
2022/11/10 03:24:39;;;;;;;22.65;4.28;;;9.10;99.90;;;;;;5145113;27;20045;-76
2022/11/10 03:27:05;;;;;;;16.38;4.10;;;9.60;99.90;;;;;;5123880;27;20032;-76
2022/11/10 03:29:30;;;;;;;16.52;3.33;;;9.20;99.90;;;;;;5144213;27;20045;-76
2022/11/10 03:31:56;;;;;;;17.77;4.07;;;9.20;99.90;;;;;;5100748;27;20035;-76
2022/11/10 03:34:22;;;;;;;21.98;4.00;;;9.90;99.90;;;;;;5125748;27;20047;-76
2022/11/10 03:36:48;;;;;;;19.23;4.00;;;9.20;99.90;;;;;;5126734;27;20118;-76
2022/11/10 03:39:13;;;;;;;16.20;3.53;;;9.20;99.90;;;;;;5142626;27;20375;-76
2022/11/10 03:41:39;;;;;;;10.30;3.67;;;9.20;99.90;;;;;;5144350;27;20042;-76
2022/11/10 03:44:05;;;;;;;16.70;3.85;;;9.80;99.90;;;;;;5122885;27;20055;-76
2022/11/10 03:46:30;;;;;;;16.15;3.60;;;9.20;99.90;;;;;;5144630;27;20042;-76
2022/11/10 03:48:56;;;;;;;16.48;3.78;;;9.20;99.90;;;;;;5108044;27;20043;-76
2022/11/10 03:51:22;;;;;;;16.17;3.13;;;10.70;99.90;;;;;;5142751;27;20038;-75
2022/11/10 03:53:47;;;;;;;17.60;3.42;;;9.20;99.90;;;;;;5127733;27;20043;-76
2022/11/10 03:56:13;;;;;;;12.35;3.28;;;9.10;99.90;;;;;;5142500;27;20035;-76
2022/11/10 03:58:40;;;;;;;34.25;4.40;;;9.20;99.90;;;;;;5108496;27;20049;-76
2022/11/10 04:01:06;;;;;;;13.82;3.22;;;9.10;99.90;;;;;;5142249;27;20456;-76
2022/11/10 04:03:31;;;;;;;15.07;3.10;;;9.10;99.90;;;;;;5125781;27;20045;-76
2022/11/10 04:08:59;;;;;;;15.98;3.92;;;9.20;99.90;;;;;;5147013;27;20049;-76
2022/11/10 04:16:57;;;;;;;;;;;9.20;99.90;;;;;;5144370;27;20051;-76
2022/11/10 04:19:23;;;;;;;19.05;3.85;;;9.10;99.90;;;;;;5106511;27;19924;-76
2022/11/10 04:21:49;;;;;;;21.20;4.60;;;9.10;99.90;;;;;;5146036;27;20115;-76
2022/11/10 04:24:16;;;;;;;21.52;4.22;;;9.20;99.90;;;;;;5147453;27;20342;-76
2022/11/10 04:26:42;;;;;;;16.42;3.55;;;9.20;99.90;;;;;;5139409;27;20063;-76
2022/11/10 04:29:10;;;;;;;21.85;4.82;;;9.20;99.90;;;;;;5148223;27;20121;-76
2022/11/10 04:31:40;;;;;;;18.63;4.65;;;9.10;99.90;;;;;;5121892;27;20043;-76
2022/11/10 04:34:08;;;;;;;18.00;4.30;;;9.30;99.90;;;;;;5103891;27;20134;-76
2022/11/10 04:36:36;;;;;;;32.05;5.53;;;9.30;99.90;;;;;;5121364;27;20047;-76
2022/11/10 04:39:03;;;;;;;21.15;5.30;;;10.60;99.90;;;;;;5121993;27;20035;-76
2022/11/10 04:41:30;;;;;;;24.50;5.18;;;9.30;99.90;;;;;;5128893;27;20096;-76
2022/11/10 04:43:56;;;;;;;20.38;4.22;;;9.30;99.90;;;;;;5121203;27;20474;-76
2022/11/10 04:46:33;;;;;;;22.60;4.65;;;9.40;99.90;;;;;;5128932;27;20045;-76
2022/11/10 04:48:59;;;;;;;23.42;4.85;;;9.40;99.90;;;;;;5103513;27;20043;-75
2022/11/10 04:51:31;;;;;;;25.40;5.00;;;9.40;99.90;;;;;;5143167;27;20117;-76
2022/11/10 04:53:57;;;;;;;22.33;4.53;;;9.40;99.90;;;;;;5142526;27;20494;-76
2022/11/10 04:56:24;;;;;;;25.10;5.85;;;9.40;99.90;;;;;;5142891;27;20122;-76
2022/11/10 04:58:51;;;;;;;18.27;4.57;;;9.40;99.90;;;;;;5142957;27;20386;-76
2022/11/10 05:01:20;;;;;;;21.27;4.78;;;9.50;99.90;;;;;;5105650;27;20602;-76
2022/11/10 05:03:46;;;;;;;21.50;4.88;;;9.50;99.90;;;;;;5142183;27;20571;-76
2022/11/10 05:06:12;;;;;;;17.05;4.65;;;9.40;99.90;;;;;;5149116;27;20086;-76
2022/11/10 05:08:39;;;;;;;23.33;5.32;;;11.00;99.90;;;;;;5123395;27;20451;-76
2022/11/10 05:11:05;;;;;;;20.20;4.95;;;9.50;99.90;;;;;;5124230;27;20086;-76
2022/11/10 05:13:31;;;;;;;22.67;4.47;;;9.50;99.90;;;;;;5121629;27;20074;-76
2022/11/10 05:15:57;;;;;;;27.02;5.55;;;9.40;99.90;;;;;;5124079;27;20076;-76
2022/11/10 05:18:23;;;;;;;26.63;5.18;;;9.30;99.90;;;;;;5122264;27;20191;-76
2022/11/10 05:20:49;;;;;;;17.75;4.65;;;9.50;99.90;;;;;;5125764;27;20144;-76
2022/11/10 05:25:59;;;;;;;25.63;5.70;;;9.40;99.90;;;;;;5149205;27;20039;-77
2022/11/10 05:28:25;;;;;;;17.13;5.28;;;9.40;99.90;;;;;;5121256;27;20154;-75
2022/11/10 05:30:51;;;;;;;17.15;4.25;;;10.60;99.90;;;;;;5125588;27;20117;-76
2022/11/10 05:33:16;;;;;;;20.33;4.80;;;9.50;99.90;;;;;;5123549;27;20042;-76
2022/11/10 05:35:43;;;;;;;17.48;4.65;;;9.40;99.90;;;;;;5138107;27;20039;-76
2022/11/10 05:38:09;;;;;;;19.75;4.20;;;9.40;99.90;;;;;;5109679;27;20084;-76
2022/11/10 05:40:34;;;;;;;13.70;4.15;;;9.40;99.90;;;;;;5123562;27;20043;-76
2022/11/10 05:43:00;;;;;;;23.85;3.75;;;9.40;99.90;;;;;;5105964;27;20035;-76
2022/11/10 05:45:27;;;;;;;20.35;4.88;;;9.40;99.90;;;;;;5106807;27;20130;-76
2022/11/10 05:47:53;;;;;;;24.20;5.03;;;9.50;99.90;;;;;;5123602;27;20485;-76
2022/11/10 05:50:20;;;;;;;18.63;4.50;;;9.50;99.90;;;;;;5106778;27;20109;-76
2022/11/10 05:52:52;;;;;;;18.13;4.35;;;9.50;99.90;;;;;;5125255;27;20142;-76
2022/11/10 05:55:21;;;;;;;20.40;3.88;;;9.50;99.90;;;;;;5123668;27;20046;-76
2022/11/10 05:57:49;;;;;;;26.33;4.70;;;9.50;99.90;;;;;;5103842;28;20045;-76
2022/11/10 06:00:17;;;;;;;16.88;4.10;;;9.50;99.90;;;;;;5114218;27;20035;-76
2022/11/10 06:02:43;;;;;;;19.10;4.00;;;9.50;99.90;;;;;;5128189;28;20043;-76
2022/11/10 06:05:10;;;;;;;21.27;4.20;;;9.50;99.90;;;;;;5119590;28;20046;-76
2022/11/10 06:07:37;;;;;;;23.92;5.38;;;9.50;99.90;;;;;;5127252;27;20058;-76
2022/11/10 06:10:03;;;;;;;21.25;3.70;;;9.50;99.90;;;;;;5120198;28;20059;-76
2022/11/10 06:12:29;;;;;;;22.23;4.35;;;9.50;99.90;;;;;;5145920;27;20532;-76
2022/11/10 06:14:57;;;;;;;30.33;4.97;;;9.60;99.90;;;;;;5120571;27;20090;-76
2022/11/10 06:17:24;;;;;;;21.63;4.53;;;9.60;99.90;;;;;;5139440;27;20035;-76
2022/11/10 06:19:50;;;;;;;25.38;4.43;;;9.60;99.90;;;;;;5125306;27;20057;-76
2022/11/10 06:22:16;;;;;;;25.35;4.63;;;9.70;99.90;;;;;;5120461;27;20046;-76
2022/11/10 06:24:42;;;;;;;20.13;4.63;;;9.50;99.90;;;;;;5144965;27;20035;-76
2022/11/10 06:27:07;;;;;;;23.98;3.70;;;10.70;99.90;;;;;;5102896;28;20394;-76
2022/11/10 06:29:33;;;;;;;28.92;4.80;;;9.50;99.90;;;;;;5127937;27;20141;-76
2022/11/10 06:31:58;;;;;;;32.63;4.50;;;9.60;99.90;;;;;;5119059;27;20398;-76
2022/11/10 06:34:24;;;;;;;19.27;4.60;;;9.60;99.90;;;;;;5122647;27;20086;-76
2022/11/10 06:36:50;;;;;;;29.45;5.10;;;9.60;99.90;;;;;;5127262;27;20039;-76
2022/11/10 06:39:15;;;;;;;20.42;4.03;;;9.60;99.90;;;;;;5127118;27;20046;-76
2022/11/10 06:41:41;;;;;;;26.20;5.05;;;9.60;99.90;;;;;;5144781;27;20088;-76
2022/11/10 06:44:07;;;;;;;21.02;4.75;;;11.10;99.90;;;;;;5123029;27;20091;-75
2022/11/10 06:46:32;;;;;;;27.55;5.55;;;10.20;99.90;;;;;;5124847;27;20035;-76
2022/11/10 06:48:58;;;;;;;26.10;5.30;;;9.50;99.90;;;;;;5147743;27;20049;-76
2022/11/10 06:51:24;;;;;;;17.10;4.90;;;9.60;99.90;;;;;;5124747;27;20039;-76
2022/11/10 06:53:50;;;;;;;25.65;4.28;;;9.60;99.90;;;;;;5126868;27;20455;-76
2022/11/10 06:56:15;;;;;;;25.45;4.30;;;9.70;99.90;;;;;;5124850;27;20343;-76
2022/11/10 06:58:41;;;;;;;20.77;5.63;;;9.70;99.90;;;;;;5109304;27;20091;-76
2022/11/10 07:01:06;;;;;;;23.45;5.07;;;9.70;99.90;;;;;;5126412;27;20113;-76
2022/11/10 07:03:32;;;;;;;27.05;5.60;;;9.70;99.90;;;;;;5112980;27;20042;-76
2022/11/10 07:05:58;;;;;;;22.70;5.45;;;9.60;99.90;;;;;;5120714;27;20034;-76
2022/11/10 07:08:23;;;;;;;28.67;5.20;;;11.00;99.90;;;;;;5147971;27;20045;-75
2022/11/10 07:10:54;;;;;;;26.52;5.68;;;9.70;99.90;;;;;;5128662;27;20042;-76
2022/11/10 07:13:21;;;;;;;18.40;4.00;;;11.40;99.90;;;;;;5127051;27;20063;-76
2022/11/10 07:15:47;;;;;;;23.75;5.15;;;9.70;99.90;;;;;;5142429;27;20522;-76
2022/11/10 07:18:13;;;;;;;23.52;4.60;;;9.70;99.90;;;;;;5122708;27;20147;-76
2022/11/10 07:20:39;;;;;;;25.40;5.15;;;9.70;99.90;;;;;;5130537;27;20053;-76
2022/11/10 07:23:06;;;;;;;29.73;5.22;;;11.00;99.90;;;;;;5141040;27;20035;-76
2022/11/10 07:25:34;;;;;;;22.65;4.68;;;9.80;99.90;;;;;;5124390;27;20043;-76
2022/11/10 07:28:02;;;;;;;19.63;3.90;;;9.80;99.90;;;;;;5108879;27;20462;-75
2022/11/10 07:30:29;;;;;;;24.25;5.88;;;9.80;99.90;;;;;;5143595;27;20122;-76
2022/11/10 07:32:58;;;;;;;25.27;6.65;;;10.50;99.90;;;;;;5126609;27;20114;-76
2022/11/10 07:35:27;;;;;;;20.02;4.57;;;9.80;99.90;;;;;;5124477;27;20478;-76
2022/11/10 07:37:55;;;;;;;15.90;4.22;;;10.40;99.90;;;;;;5126181;27;20043;-76
2022/11/10 07:40:21;;;;;;;18.52;4.68;;;9.80;99.90;;;;;;5109369;27;20481;-76
2022/11/10 07:42:47;;;;;;;21.05;4.28;;;9.80;99.90;;;;;;5143781;27;20070;-76
2022/11/10 07:45:13;;;;;;;24.15;4.97;;;9.80;99.90;;;;;;5126469;27;20412;-76
2022/11/10 07:47:39;;;;;;;29.65;4.88;;;9.80;99.90;;;;;;5141846;27;20494;-75
2022/11/10 07:50:05;;;;;;;22.10;4.25;;;9.80;99.90;;;;;;5143957;27;20119;-76
2022/11/10 07:52:30;;;;;;;16.17;3.85;;;9.80;99.90;;;;;;5143641;27;20054;-76
2022/11/10 07:54:56;;;;;;;24.35;3.60;;;9.90;99.90;;;;;;5144857;27;20450;-75
2022/11/10 07:57:21;;;;;;;20.20;4.45;;;9.90;99.90;;;;;;5143987;27;20070;-76
2022/11/10 07:59:47;;;;;;;21.95;4.97;;;10.20;99.90;;;;;;5143685;27;20038;-76
2022/11/10 08:02:12;;;;;;;26.55;5.63;;;9.90;99.90;;;;;;5144347;27;20049;-75
2022/11/10 08:04:38;;;;;;;22.50;6.50;;;9.80;99.90;;;;;;5122751;27;20082;-76
2022/11/10 08:07:04;;;;;;;23.25;4.20;;;10.40;99.90;;;;;;5103026;27;20070;-77
2022/11/10 08:09:29;;;;;;;23.98;4.75;;;10.20;99.90;;;;;;5120708;27;20103;-76
2022/11/10 08:11:55;;;;;;;24.60;5.28;;;9.90;99.90;;;;;;5127022;27;20033;-76
2022/11/10 08:14:21;;;;;;;28.05;5.75;;;9.90;99.90;;;;;;5108979;27;20613;-76
2022/11/10 08:16:47;;;;;;;19.80;5.00;;;10.00;99.90;;;;;;5124092;27;20039;-76
2022/11/10 08:19:12;;;;;;;20.17;5.13;;;9.90;99.90;;;;;;5142682;27;20396;-76
2022/11/10 08:21:38;;;;;;;28.23;5.38;;;10.00;99.90;;;;;;5142022;27;20406;-76
2022/11/10 08:24:03;;;;;;;27.45;5.93;;;10.00;99.90;;;;;;5106204;27;20050;-76
2022/11/10 08:26:29;;;;;;;23.80;6.82;;;10.10;99.90;;;;;;5125162;27;20041;-76
2022/11/10 08:28:55;;;;;;;24.50;5.47;;;11.10;99.90;;;;;;5124096;27;20038;-76
2022/11/10 08:31:20;;;;;;;21.00;4.35;;;10.20;99.90;;;;;;5124819;27;20030;-76
2022/11/10 08:33:46;;;;;;;19.55;5.45;;;10.60;99.90;;;;;;5142895;27;20477;-76
2022/11/10 08:36:13;;;;;;;23.35;4.78;;;10.70;99.90;;;;;;5125228;27;20043;-76
2022/11/10 08:38:38;;;;;;;20.67;5.35;;;10.40;99.90;;;;;;5123127;27;20035;-76
2022/11/10 08:41:04;;;;;;;19.55;4.88;;;10.40;99.90;;;;;;5107131;27;20041;-76
2022/11/10 08:43:30;;;;;;;28.27;4.70;;;10.40;99.90;;;;;;5107953;27;20039;-76
2022/11/10 08:45:55;;;;;;;27.77;5.88;;;10.60;99.90;;;;;;5122467;27;20039;-76
2022/11/10 08:48:21;;;;;;;22.88;5.95;;;10.60;99.90;;;;;;5107654;27;20091;-75
2022/11/10 08:50:48;;;;;;;19.92;4.88;;;10.80;99.90;;;;;;5123892;27;20047;-76
2022/11/10 08:53:22;;;;;;;20.50;4.75;;;10.90;99.90;;;;;;5110773;27;20030;-76
2022/11/10 08:55:49;;;;;;;25.05;5.18;;;10.60;99.90;;;;;;5121622;27;20034;-76
2022/11/10 08:58:20;;;;;;;19.40;4.60;;;10.70;99.90;;;;;;5123868;27;20482;-76
2022/11/10 09:00:46;;;;;;;22.63;4.75;;;10.70;99.90;;;;;;5104803;27;20049;-76
2022/11/10 09:03:17;;;;;;;20.13;5.03;;;10.80;99.90;;;;;;5124699;27;20050;-76
2022/11/10 09:05:44;;;;;;;18.45;4.97;;;10.80;99.90;;;;;;5116177;27;20581;-76
2022/11/10 09:08:10;;;;;;;16.33;3.33;;;10.90;99.90;;;;;;5105623;27;20043;-76
2022/11/10 09:10:38;;;;;;;25.33;5.28;;;11.20;99.90;;;;;;5147431;27;20173;-76
2022/11/10 09:13:05;;;;;;;20.92;5.00;;;11.00;99.90;;;;;;5139235;27;20049;-77
2022/11/10 09:15:31;;;;;;;22.85;4.70;;;11.10;99.90;;;;;;5120377;27;20436;-76
2022/11/10 09:17:58;;;;;;;30.88;4.72;;;11.10;99.90;;;;;;5126149;27;20085;-76
2022/11/10 09:20:26;;;;;;;23.58;4.95;;;11.10;99.90;;;;;;5138254;27;20081;-76
2022/11/10 09:22:51;;;;;;;23.25;4.93;;;11.20;99.90;;;;;;5127572;27;20043;-76
2022/11/10 09:25:17;;;;;;;16.63;4.13;;;11.10;99.90;;;;;;5120495;27;20047;-76
2022/11/10 09:27:42;;;;;;;22.15;5.18;;;11.20;99.90;;;;;;5127911;27;20047;-76
2022/11/10 09:30:09;;;;;;;23.05;5.35;;;11.20;99.90;;;;;;5103116;27;20486;-76
2022/11/10 09:32:34;;;;;;;15.88;4.88;;;11.20;99.90;;;;;;5146995;27;20046;-76
2022/11/10 09:35:00;;;;;;;22.20;6.25;;;12.40;99.90;;;;;;5103078;27;20062;-75
2022/11/10 09:37:27;;;;;;;22.50;5.60;;;11.40;99.90;;;;;;5138811;27;20045;-76
2022/11/10 09:39:52;;;;;;;19.20;4.72;;;12.00;99.90;;;;;;5145574;27;20474;-76
2022/11/10 09:42:47;;;;;;;28.08;7.18;;;11.30;99.90;;;;;;5138329;27;20039;-76
2022/11/10 09:45:32;;;;;;;;;;;11.30;99.90;;;;;;5117333;27;20058;-76
2022/11/10 09:48:14;;;;;;;31.38;8.02;;;11.20;99.90;;;;;;5142421;27;19962;-75
2022/11/10 09:50:57;;;;;;;19.20;6.63;;;11.20;99.90;;;;;;5122587;27;20398;-76
2022/11/10 09:53:36;;;;;;;29.80;7.65;;;12.30;99.90;;;;;;5124269;27;20066;-76
2022/11/10 09:56:04;;;;;;;25.98;6.63;;;11.50;99.90;;;;;;5121016;27;20148;-76
2022/11/10 09:58:42;;;;;;;29.23;7.65;;;11.30;99.90;;;;;;5123576;27;20398;-77
2022/11/10 10:01:14;;;;;;;22.33;6.82;;;11.70;99.90;;;;;;5122405;27;20043;-76
2022/11/10 10:03:57;;;;;;;19.88;6.20;;;11.40;99.90;;;;;;5122976;27;20061;-76
2022/11/10 10:06:23;;;;;;;21.45;6.28;;;11.40;99.90;;;;;;5103516;27;20063;-76
2022/11/10 10:09:15;;;;;;;23.58;7.55;;;11.40;99.90;;;;;;5107395;27;20540;-76
2022/11/10 10:12:05;;;;;;;24.08;5.78;;;11.40;99.90;;;;;;5125748;27;20063;-76
2022/11/10 10:15:06;;;;;;;16.35;4.75;;;11.40;99.90;;;;;;5131122;27;20049;-76
2022/11/10 10:17:32;;;;;;;20.48;5.35;;;11.50;99.90;;;;;;5117233;27;20094;-76
2022/11/10 10:20:31;;;;;;;28.23;5.80;;;12.20;99.90;;;;;;5125469;27;20061;-76
2022/11/10 10:23:05;;;;;;;22.20;6.50;;;11.50;99.90;;;;;;5101214;27;20043;-76
2022/11/10 10:25:31;;;;;;;19.35;5.53;;;11.60;99.90;;;;;;5109455;27;20599;-76
2022/11/10 10:28:04;;;;;;;23.73;6.05;;;11.60;99.90;;;;;;5126015;27;20130;-76
2022/11/10 10:30:29;;;;;;;26.40;6.05;;;11.60;99.90;;;;;;5148588;27;20071;-76
2022/11/10 10:33:15;;;;;;;19.40;5.55;;;11.60;99.90;;;;;;5109942;27;20031;-76
2022/11/10 10:35:43;;;;;;;26.98;8.43;;;11.80;99.90;;;;;;5127164;27;20129;-76
2022/11/10 10:38:15;;;;;;;25.48;5.40;;;11.70;99.90;;;;;;5139568;27;20054;-76
2022/11/10 10:40:42;;;;;;;24.02;5.65;;;11.90;99.90;;;;;;5152156;27;20371;-76
2022/11/10 10:43:08;;;;;;;34.30;7.47;;;13.20;99.90;;;;;;5118118;27;20050;-76
2022/11/10 10:45:37;;;;;;;23.75;5.63;;;11.80;99.90;;;;;;5126668;27;20047;-76
2022/11/10 10:48:24;;;;;;;26.85;5.93;;;12.80;99.90;;;;;;5119449;27;20047;-76
2022/11/10 10:50:50;;;;;;;25.60;6.22;;;11.90;99.90;;;;;;5109993;27;20043;-76
2022/11/10 10:53:18;;;;;;;22.92;5.78;;;11.90;99.90;;;;;;5144873;27;20547;-76
2022/11/10 10:56:00;;;;;;;21.27;5.88;;;11.90;99.90;;;;;;5129579;27;20135;-76
2022/11/10 10:58:33;;;;;;;26.33;6.30;;;11.90;99.90;;;;;;5097079;27;20043;-76
2022/11/10 11:01:17;;;;;;;21.40;5.80;;;11.90;99.90;;;;;;5114020;27;20050;-76
2022/11/10 11:03:46;;;;;;;24.15;5.15;;;12.00;99.90;;;;;;5141738;27;20127;-76
2022/11/10 11:06:15;;;;;;;26.65;5.53;;;12.00;99.90;;;;;;5149381;27;20102;-76
2022/11/10 11:08:57;;;;;;;19.58;5.57;;;12.10;99.90;;;;;;5122980;27;20039;-76
2022/11/10 11:11:32;;;;;;;23.13;4.65;;;12.10;99.90;;;;;;5119367;27;20085;-76
2022/11/10 11:14:17;;;;;;;23.83;5.57;;;12.10;99.90;;;;;;5124322;27;20035;-76
2022/11/10 11:16:52;;;;;;;16.33;4.47;;;12.80;99.90;;;;;;5144989;27;20529;-76
2022/11/10 11:19:21;;;;;;;21.40;4.38;;;12.20;99.90;;;;;;5101209;27;20039;-76
2022/11/10 11:22:14;;;;;;;21.60;4.70;;;12.60;99.90;;;;;;5108091;27;20062;-76
2022/11/10 11:24:56;;;;;;;27.63;5.15;;;12.30;99.90;;;;;;5131557;27;20057;-76
2022/11/10 11:27:35;;;;;;;21.83;3.78;;;12.30;99.90;;;;;;5140992;27;20524;-76
2022/11/10 11:30:08;;;;;;;27.92;5.75;;;12.30;99.90;;;;;;5112625;27;20045;-75
2022/11/10 11:32:58;;;;;;;29.02;4.93;;;12.40;99.90;;;;;;5121876;27;20047;-76
2022/11/10 11:35:30;;;;;;;22.58;4.25;;;12.30;99.90;;;;;;5129674;27;20051;-76
2022/11/10 11:38:21;;;;;;;25.25;4.20;;;12.40;99.90;;;;;;5105962;27;20055;-76
2022/11/10 11:40:58;;;;;;;23.52;3.70;;;12.50;99.90;;;;;;5127485;27;20494;-76
2022/11/10 11:44:02;;;;;;;21.50;4.18;;;12.50;99.90;;;;;;5104679;27;20043;-76
2022/11/10 11:46:49;;;;;;;24.98;4.47;;;12.60;99.90;;;;;;5120061;27;20045;-76
2022/11/10 11:49:39;;;;;;;21.83;3.78;;;12.70;99.90;;;;;;5121963;27;20043;-76
2022/11/10 11:52:24;;;;;;;21.33;3.85;;;12.70;99.90;;;;;;5149451;27;20046;-76
2022/11/10 11:55:20;;;;;;;22.08;3.95;;;12.80;99.90;;;;;;5121876;27;20035;-76
2022/11/10 11:58:02;;;;;;;17.35;3.03;;;12.40;99.90;;;;;;5123616;27;20050;-76
2022/11/10 12:00:36;;;;;;;19.13;3.42;;;12.80;99.90;;;;;;5118391;27;20117;-76
2022/11/10 12:03:23;;;;;;;19.38;2.85;;;12.90;99.90;;;;;;5142520;27;20519;-76
2022/11/10 12:05:57;;;;;;;19.52;3.55;;;12.90;99.90;;;;;;5108903;27;20045;-76
2022/11/10 12:08:47;;;;;;;28.90;3.83;;;13.00;99.90;;;;;;5121555;27;20031;-76
2022/11/10 12:11:37;;;;;;;21.25;4.00;;;13.00;99.90;;;;;;5143572;27;20043;-76
2022/11/10 12:14:20;;;;;;;23.30;3.92;;;12.90;99.90;;;;;;5124706;27;20047;-76
2022/11/10 12:17:22;;;;;;;14.52;2.95;;;13.00;99.90;;;;;;5122282;27;20046;-75
2022/11/10 12:20:00;;;;;;;17.30;2.10;;;13.10;99.90;;;;;;5103918;27;20067;-76
2022/11/10 12:22:41;;;;;;;28.05;3.58;;;13.00;99.90;;;;;;5100997;27;20042;-75
2022/11/10 12:25:21;;;;;;;21.63;3.15;;;13.10;99.90;;;;;;5106625;27;20058;-75
2022/11/10 12:27:56;;;;;;;20.55;3.60;;;13.10;99.90;;;;;;5143704;27;20117;-76
2022/11/10 12:30:22;;;;;;;21.38;3.55;;;13.00;99.90;;;;;;5107237;27;20474;-75
2022/11/10 12:33:04;;;;;;;19.63;3.45;;;13.10;99.90;;;;;;5108554;27;20054;-76
2022/11/10 12:35:42;;;;;;;15.40;2.88;;;13.00;99.90;;;;;;5116600;27;20043;-76
2022/11/10 12:38:15;;;;;;;18.60;3.05;;;13.00;99.90;;;;;;5126284;27;20051;-75
2022/11/10 12:41:00;;;;;;;19.45;2.38;;;13.00;99.90;;;;;;5110176;27;20482;-76
2022/11/10 12:43:45;;;;;;;14.20;2.63;;;13.00;99.90;;;;;;5139026;27;20387;-75
2022/11/10 12:46:12;;;;;;;18.10;3.03;;;13.00;99.90;;;;;;5105483;27;20043;-75
2022/11/10 12:48:48;;;;;;;23.63;3.15;;;13.00;99.90;;;;;;5142971;27;20039;-75
2022/11/10 12:51:32;;;;;;;29.48;3.22;;;14.30;99.90;;;;;;5122732;27;20038;-75
2022/11/10 12:53:57;;;;;;;21.17;4.00;;;13.00;99.90;;;;;;5108082;27;20060;-75
2022/11/10 12:56:49;;;;;;;16.60;2.33;;;13.00;99.90;;;;;;5106972;27;20035;-75
2022/11/10 12:59:20;;;;;;;16.33;3.90;;;13.00;99.90;;;;;;5123326;27;20043;-76
2022/11/10 13:01:55;;;;;;;15.93;3.05;;;12.90;99.90;;;;;;5121136;27;20039;-76
2022/11/10 13:04:21;;;;;;;20.23;3.53;;;13.20;99.90;;;;;;5126951;27;20095;-75
2022/11/10 13:07:08;;;;;;;23.05;3.92;;;13.00;99.90;;;;;;5103262;27;20122;-75
2022/11/10 13:09:37;;;;;;;20.40;4.65;;;13.00;99.90;;;;;;5103341;27;20062;-75